Time;durP1;ratioP1;P1;durP2;ratioP2;P2;SDS_P1;SDS_P2;PMS_P1;PMS_P2;Temp;Humidity;BMP_temperature;BMP_pressure;BME280_temperature;BME280_humidity;BME280_pressure;Samples;Min_cycle;Max_cycle;Signal;HPM_P1;HPM_P2
2022/04/15 00:00:25;;;;;;;7.30;5.07;;;9.10;99.90;;;;;;4982516;28;20036;-83
2022/04/15 00:02:50;;;;;;;5.57;4.07;;;9.10;99.90;;;;;;4965299;28;20038;-82
2022/04/15 00:08:02;;;;;;;12.23;6.13;;;8.90;99.90;;;;;;4975937;28;20033;-82
2022/04/15 00:10:28;;;;;;;9.27;5.45;;;9.00;99.90;;;;;;4981687;28;20034;-81
2022/04/15 00:12:57;;;;;;;11.77;6.15;;;8.90;99.90;;;;;;4999622;28;20040;-82
2022/04/15 00:15:23;;;;;;;9.63;5.78;;;8.90;99.90;;;;;;4966476;28;20171;-82
2022/04/15 00:17:49;;;;;;;10.90;5.68;;;8.80;99.90;;;;;;4975506;28;20040;-82
2022/04/15 00:20:15;;;;;;;8.52;5.63;;;8.80;99.90;;;;;;4982183;28;20394;-82
2022/04/15 00:22:40;;;;;;;8.90;5.57;;;8.80;99.90;;;;;;4981262;28;20469;-82
2022/04/15 00:25:07;;;;;;;10.93;6.70;;;8.80;99.90;;;;;;4981257;28;20478;-81
2022/04/15 00:27:34;;;;;;;10.05;8.13;;;8.70;99.90;;;;;;4955492;28;20117;-82
2022/04/15 00:29:59;;;;;;;8.57;6.20;;;8.70;99.90;;;;;;4997614;28;20077;-80
2022/04/15 00:32:26;;;;;;;8.77;6.35;;;8.70;99.90;;;;;;4987319;28;20038;-81
2022/04/15 00:34:53;;;;;;;8.60;6.20;;;8.60;99.90;;;;;;4959460;28;20026;-81
2022/04/15 00:37:18;;;;;;;9.25;8.13;;;8.60;99.90;;;;;;4965799;28;20478;-82
2022/04/15 00:39:46;;;;;;;12.98;8.60;;;8.50;99.90;;;;;;4974022;28;21768;-81
2022/04/15 00:42:12;;;;;;;12.52;8.77;;;8.50;99.90;;;;;;4981234;28;20033;-80
2022/04/15 00:44:38;;;;;;;15.60;9.57;;;8.50;99.90;;;;;;4979554;28;20036;-81
2022/04/15 00:47:22;;;;;;;10.15;7.95;;;8.40;99.90;;;;;;4979984;28;20053;-81
2022/04/15 00:49:48;;;;;;;11.95;8.05;;;8.40;99.90;;;;;;4971171;28;20099;-81
2022/04/15 00:52:14;;;;;;;8.75;5.68;;;8.40;99.90;;;;;;4979227;28;20490;-81
2022/04/15 00:54:42;;;;;;;9.35;5.20;;;8.30;99.90;;;;;;4982270;28;20692;-81
2022/04/15 00:57:11;;;;;;;7.03;5.35;;;8.30;99.90;;;;;;4979338;28;20255;-81
2022/04/15 00:59:38;;;;;;;9.93;6.53;;;8.20;99.90;;;;;;4959800;28;20038;-82
2022/04/15 01:02:05;;;;;;;6.97;5.88;;;8.20;99.90;;;;;;4995599;28;20080;-81
2022/04/15 01:04:31;;;;;;;8.60;4.85;;;8.20;99.90;;;;;;4956990;28;20037;-82
2022/04/15 01:07:02;;;;;;;8.55;5.60;;;8.20;99.90;;;;;;4998986;28;20475;-81
2022/04/15 01:09:32;;;;;;;6.57;5.10;;;8.20;99.90;;;;;;4981231;28;20224;-82
2022/04/15 01:11:58;;;;;;;6.23;4.17;;;8.10;99.90;;;;;;4984078;28;20160;-82
2022/04/15 01:14:25;;;;;;;8.85;5.25;;;8.10;99.90;;;;;;4991256;28;20036;-81
2022/04/15 01:16:51;;;;;;;8.75;6.38;;;8.10;99.90;;;;;;4980740;28;20049;-82
2022/04/15 01:19:17;;;;;;;7.97;5.07;;;8.00;99.90;;;;;;4964840;28;20490;-82
2022/04/15 01:21:44;;;;;;;9.90;6.00;;;8.00;99.90;;;;;;4981462;28;20028;-81
2022/04/15 01:24:09;;;;;;;10.95;6.70;;;8.00;99.90;;;;;;4975235;28;20044;-82
2022/04/15 01:26:38;;;;;;;8.63;5.47;;;8.00;99.90;;;;;;4981549;28;20401;-80
2022/04/15 01:29:04;;;;;;;12.02;7.70;;;7.90;99.90;;;;;;4997323;28;20216;-81
2022/04/15 01:31:31;;;;;;;9.48;6.28;;;7.90;99.90;;;;;;4991134;28;20034;-81
2022/04/15 01:33:59;;;;;;;8.40;6.00;;;7.80;99.90;;;;;;4997808;28;20088;-81
2022/04/15 01:36:25;;;;;;;8.88;5.88;;;7.80;99.90;;;;;;4996719;28;20038;-81
2022/04/15 01:38:51;;;;;;;8.52;6.28;;;7.80;99.90;;;;;;4979626;28;20578;-81
2022/04/15 01:41:16;;;;;;;8.00;5.22;;;7.80;99.90;;;;;;4991527;28;20196;-81
2022/04/15 01:43:42;;;;;;;7.40;5.53;;;7.70;99.90;;;;;;4997749;28;20093;-82
2022/04/15 01:46:08;;;;;;;4.63;2.97;;;7.70;99.90;;;;;;4997205;28;20033;-82
2022/04/15 01:48:33;;;;;;;8.38;5.88;;;7.70;99.90;;;;;;4997920;28;20025;-82
2022/04/15 01:50:59;;;;;;;9.13;5.53;;;7.70;99.90;;;;;;4997925;28;20041;-82
2022/04/15 01:53:24;;;;;;;4.55;3.80;;;7.60;99.90;;;;;;4980571;28;20057;-81
2022/04/15 01:55:50;;;;;;;12.00;6.75;;;7.60;99.90;;;;;;4977541;28;20466;-81
2022/04/15 01:58:16;;;;;;;7.43;5.43;;;7.60;99.90;;;;;;5000795;28;20022;-81
2022/04/15 02:00:42;;;;;;;7.47;5.72;;;7.50;99.90;;;;;;4994980;28;20210;-81
2022/04/15 02:03:08;;;;;;;7.78;5.32;;;7.50;99.90;;;;;;4974647;28;20297;-81
2022/04/15 02:05:33;;;;;;;5.70;4.47;;;7.50;99.90;;;;;;4984249;28;20026;-81
2022/04/15 02:07:59;;;;;;;6.80;4.35;;;7.40;99.90;;;;;;4984285;28;20110;-81
2022/04/15 02:10:25;;;;;;;5.93;3.30;;;7.40;99.90;;;;;;4978326;28;20387;-82
2022/04/15 02:12:50;;;;;;;4.85;3.83;;;7.40;99.90;;;;;;4965328;28;20034;-81
2022/04/15 02:15:16;;;;;;;4.70;3.35;;;7.40;99.90;;;;;;4982814;28;20660;-81
2022/04/15 02:17:41;;;;;;;10.23;5.07;;;7.40;99.90;;;;;;4966730;28;20494;-81
2022/04/15 02:20:10;;;;;;;5.13;3.33;;;7.40;99.90;;;;;;4983077;28;20102;-81
2022/04/15 02:22:36;;;;;;;7.65;5.00;;;7.40;99.90;;;;;;4982801;28;20464;-82
2022/04/15 02:25:01;;;;;;;13.02;8.75;;;7.40;99.90;;;;;;4984207;28;20133;-80
2022/04/15 02:27:27;;;;;;;13.15;8.45;;;7.40;99.90;;;;;;4983244;28;20077;-81
2022/04/15 02:29:53;;;;;;;9.10;5.90;;;7.40;99.90;;;;;;4978556;28;20366;-80
2022/04/15 02:32:18;;;;;;;9.77;5.00;;;7.40;99.90;;;;;;4982096;28;20037;-80
2022/04/15 02:34:44;;;;;;;10.88;6.78;;;7.50;99.90;;;;;;4967159;28;21931;-81
2022/04/15 02:37:10;;;;;;;9.55;5.68;;;7.50;99.90;;;;;;4968095;28;20057;-81
2022/04/15 02:39:35;;;;;;;10.30;5.65;;;7.50;99.90;;;;;;4961446;28;20441;-81
2022/04/15 02:42:01;;;;;;;7.75;5.70;;;7.60;99.90;;;;;;4998611;28;20025;-80
2022/04/15 02:44:29;;;;;;;7.72;4.60;;;7.60;99.90;;;;;;4977392;28;20037;-82
2022/04/15 02:46:57;;;;;;;9.60;7.18;;;7.60;99.90;;;;;;4962076;28;20041;-81
2022/04/15 02:49:23;;;;;;;9.15;5.32;;;7.60;99.90;;;;;;4993312;28;20048;-81
2022/04/15 02:51:49;;;;;;;8.70;5.68;;;7.60;99.90;;;;;;4959084;28;20148;-82
2022/04/15 02:54:15;;;;;;;6.47;4.38;;;7.60;99.90;;;;;;4967719;28;20154;-81
2022/04/15 02:56:40;;;;;;;9.70;6.32;;;7.60;99.90;;;;;;4961744;28;20498;-81
2022/04/15 02:59:06;;;;;;;10.95;5.78;;;7.60;99.90;;;;;;5000390;28;20104;-80
2022/04/15 03:01:31;;;;;;;6.18;3.88;;;7.70;99.90;;;;;;4984605;28;20068;-81
2022/04/15 03:03:57;;;;;;;11.82;8.73;;;7.70;99.90;;;;;;4976753;28;20168;-82
2022/04/15 03:06:22;;;;;;;13.18;8.13;;;7.60;99.90;;;;;;4999613;28;20042;-82
2022/04/15 03:08:48;;;;;;;9.75;6.10;;;7.60;99.90;;;;;;4966543;28;20041;-82
2022/04/15 03:11:13;;;;;;;10.85;7.40;;;7.60;99.90;;;;;;4956899;28;20529;-82
2022/04/15 03:13:39;;;;;;;8.15;6.80;;;7.50;99.90;;;;;;4977394;28;20037;-80
2022/04/15 03:16:05;;;;;;;12.38;8.05;;;7.50;99.90;;;;;;4989403;28;20042;-81
2022/04/15 03:18:30;;;;;;;15.02;8.45;;;7.50;99.90;;;;;;4982851;28;20037;-81
2022/04/15 03:20:56;;;;;;;8.25;6.10;;;7.50;99.90;;;;;;4967571;28;20034;-82
2022/04/15 03:23:21;;;;;;;11.40;7.65;;;7.50;99.90;;;;;;4989297;28;20042;-82
2022/04/15 03:25:47;;;;;;;11.25;7.30;;;7.50;99.90;;;;;;4965948;28;20030;-81
2022/04/15 03:28:15;;;;;;;14.88;10.50;;;7.50;99.90;;;;;;4978503;28;20108;-82
2022/04/15 03:30:40;;;;;;;12.25;8.15;;;7.40;99.90;;;;;;4994414;28;20699;-81
2022/04/15 03:33:06;;;;;;;13.27;8.88;;;7.50;99.90;;;;;;4981292;28;20113;-82
2022/04/15 03:35:32;;;;;;;9.77;6.63;;;7.50;99.90;;;;;;4981820;28;20398;-82
2022/04/15 03:37:57;;;;;;;10.02;6.60;;;7.50;99.90;;;;;;4978005;28;20057;-82
2022/04/15 03:40:23;;;;;;;14.80;8.68;;;7.50;99.90;;;;;;4964897;28;20033;-82
2022/04/15 03:42:50;;;;;;;12.15;8.20;;;7.50;99.90;;;;;;4960450;28;20030;-82
2022/04/15 03:45:22;;;;;;;11.82;8.30;;;7.60;99.90;;;;;;4977666;28;20076;-82
2022/04/15 03:47:54;;;;;;;13.98;8.05;;;7.60;99.90;;;;;;4976136;28;20037;-82
2022/04/15 03:50:20;;;;;;;10.70;6.45;;;7.60;99.90;;;;;;4999840;28;20111;-81
2022/04/15 03:52:47;;;;;;;11.27;7.05;;;7.60;99.90;;;;;;4975873;28;20068;-82
2022/04/15 03:55:14;;;;;;;12.18;8.00;;;7.60;99.90;;;;;;4982220;28;20360;-82
2022/04/15 03:57:40;;;;;;;11.77;7.65;;;7.60;99.90;;;;;;4976653;28;20478;-82
2022/04/15 04:00:09;;;;;;;11.35;8.43;;;7.60;99.90;;;;;;4983251;28;20041;-82
2022/04/15 04:02:35;;;;;;;12.40;6.90;;;7.60;99.90;;;;;;4977532;28;20029;-82
2022/04/15 04:05:01;;;;;;;9.05;5.57;;;7.60;99.90;;;;;;4964691;28;20501;-82
2022/04/15 04:07:26;;;;;;;11.50;7.68;;;7.60;99.90;;;;;;4965360;28;20022;-82
2022/04/15 04:09:52;;;;;;;13.23;8.68;;;7.60;99.90;;;;;;4976736;28;20025;-82
2022/04/15 04:12:18;;;;;;;12.77;8.52;;;7.50;99.90;;;;;;4988067;28;20022;-82
2022/04/15 04:14:43;;;;;;;13.05;7.32;;;7.60;99.90;;;;;;4983290;28;20080;-82
2022/04/15 04:17:09;;;;;;;13.80;7.75;;;7.60;99.90;;;;;;4959457;28;20069;-82
2022/04/15 04:19:35;;;;;;;10.40;7.05;;;7.60;99.90;;;;;;4981964;28;20140;-83
2022/04/15 04:22:00;;;;;;;9.68;7.10;;;7.50;99.90;;;;;;4986937;28;20556;-82
2022/04/15 04:24:26;;;;;;;8.80;5.57;;;7.50;99.90;;;;;;4976379;28;20045;-82
2022/04/15 04:26:52;;;;;;;8.98;6.10;;;7.50;99.90;;;;;;4993868;28;20025;-83
2022/04/15 04:29:17;;;;;;;8.90;5.43;;;7.40;99.90;;;;;;4981601;28;20426;-81
2022/04/15 04:31:43;;;;;;;7.10;4.68;;;7.40;99.90;;;;;;4981592;28;20026;-82
2022/04/15 04:34:08;;;;;;;6.75;4.75;;;7.30;99.90;;;;;;4980748;28;20441;-82
2022/04/15 04:36:34;;;;;;;9.55;6.28;;;7.20;99.90;;;;;;4999733;28;20661;-82
2022/04/15 04:38:59;;;;;;;6.57;5.75;;;7.20;99.90;;;;;;4981538;28;20072;-82
2022/04/15 04:41:25;;;;;;;9.50;6.65;;;7.10;99.90;;;;;;4999253;28;20146;-82
2022/04/15 04:43:51;;;;;;;10.07;5.68;;;7.20;99.90;;;;;;4975221;28;20112;-82
2022/04/15 04:46:17;;;;;;;10.55;5.40;;;7.10;99.90;;;;;;4960204;28;20026;-82
2022/04/15 04:48:42;;;;;;;11.18;6.47;;;7.00;99.90;;;;;;4981449;28;20513;-80
2022/04/15 04:51:08;;;;;;;7.35;4.47;;;7.00;99.90;;;;;;4964577;28;20063;-82
2022/04/15 04:53:34;;;;;;;10.80;6.10;;;7.00;99.90;;;;;;4980428;28;20116;-81
2022/04/15 04:56:00;;;;;;;7.55;4.75;;;7.00;99.90;;;;;;4980347;28;20048;-83
2022/04/15 04:58:26;;;;;;;8.60;6.03;;;6.90;99.90;;;;;;4981152;28;20422;-82
2022/04/15 05:00:51;;;;;;;6.47;5.00;;;7.00;99.90;;;;;;4958857;28;20124;-83
2022/04/15 05:03:17;;;;;;;7.32;4.45;;;7.00;99.90;;;;;;4964189;28;20173;-83
2022/04/15 05:05:42;;;;;;;7.10;4.57;;;7.00;99.90;;;;;;4979716;28;20049;-82
2022/04/15 05:08:08;;;;;;;5.70;3.70;;;7.10;99.90;;;;;;4981115;28;20117;-82
2022/04/15 05:10:34;;;;;;;5.25;4.03;;;7.10;99.90;;;;;;4957804;28;20046;-80
2022/04/15 05:12:59;;;;;;;4.63;4.07;;;7.10;99.90;;;;;;4996845;28;20033;-81
2022/04/15 05:15:25;;;;;;;8.35;4.75;;;7.10;99.90;;;;;;4981422;28;20034;-81
2022/04/15 05:17:50;;;;;;;7.00;4.65;;;7.00;99.90;;;;;;4977789;28;20117;-82
2022/04/15 05:20:16;;;;;;;8.77;5.05;;;7.00;99.90;;;;;;4978899;28;20622;-82
2022/04/15 05:22:42;;;;;;;8.30;5.30;;;7.00;99.90;;;;;;4981041;28;20447;-82
2022/04/15 05:25:08;;;;;;;6.63;4.93;;;7.00;99.90;;;;;;4975220;28;20121;-82
2022/04/15 05:27:34;;;;;;;8.32;6.13;;;7.00;99.90;;;;;;4979646;28;20029;-82
2022/04/15 05:29:59;;;;;;;6.90;5.13;;;6.90;99.90;;;;;;4999585;28;20042;-82
2022/04/15 05:32:25;;;;;;;8.30;5.70;;;7.00;99.90;;;;;;4968466;28;20136;-81
2022/04/15 05:34:51;;;;;;;10.10;6.25;;;7.00;99.90;;;;;;4978163;28;20061;-82
2022/04/15 05:37:24;;;;;;;10.43;6.88;;;7.00;99.90;;;;;;4971279;28;20038;-81
2022/04/15 05:39:49;;;;;;;9.00;5.80;;;7.00;99.90;;;;;;4968865;28;20049;-83
2022/04/15 05:42:15;;;;;;;7.07;4.10;;;7.10;99.90;;;;;;4984023;28;20025;-83
2022/04/15 05:44:41;;;;;;;7.55;5.38;;;7.10;99.90;;;;;;4978501;28;20026;-83
2022/04/15 05:47:07;;;;;;;9.57;6.07;;;7.10;99.90;;;;;;5002732;28;20624;-83
2022/04/15 05:49:34;;;;;;;10.02;6.25;;;7.20;99.90;;;;;;5002808;28;20049;-83
2022/04/15 05:52:03;;;;;;;9.65;6.25;;;7.20;99.90;;;;;;4982827;28;20494;-82
2022/04/15 05:54:29;;;;;;;9.77;6.93;;;7.20;99.90;;;;;;4964468;28;20488;-83
2022/04/15 05:56:54;;;;;;;9.55;5.40;;;7.20;99.90;;;;;;5001344;28;20026;-83
2022/04/15 05:59:23;;;;;;;14.55;7.60;;;7.30;99.90;;;;;;4983219;28;20232;-84
2022/04/15 06:01:51;;;;;;;12.45;7.65;;;7.30;99.90;;;;;;4990112;28;20038;-82
2022/04/15 06:04:17;;;;;;;11.93;9.05;;;7.30;99.90;;;;;;5002351;28;20038;-82
2022/04/15 06:06:43;;;;;;;11.13;7.38;;;7.40;99.90;;;;;;5001693;28;20072;-82
2022/04/15 06:09:09;;;;;;;10.10;6.97;;;7.40;99.90;;;;;;4982397;28;20625;-83
2022/04/15 06:11:35;;;;;;;10.27;7.07;;;7.50;99.90;;;;;;4969681;28;20467;-83
2022/04/15 06:14:04;;;;;;;11.20;6.65;;;7.50;99.90;;;;;;4983683;28;20335;-82
2022/04/15 06:16:33;;;;;;;12.23;7.55;;;7.60;99.90;;;;;;4934452;28;20046;-81
2022/04/15 06:18:59;;;;;;;12.77;8.07;;;7.60;99.90;;;;;;4998590;28;20088;-81
2022/04/15 06:21:25;;;;;;;10.45;7.45;;;7.60;99.90;;;;;;4981485;28;20541;-81
2022/04/15 06:23:51;;;;;;;9.10;6.78;;;7.70;99.90;;;;;;4982918;28;20566;-81
2022/04/15 06:26:16;;;;;;;10.70;6.10;;;7.80;99.90;;;;;;4980141;28;20038;-82
2022/04/15 06:28:42;;;;;;;6.50;5.50;;;7.90;99.90;;;;;;4972892;28;20092;-82
2022/04/15 06:31:07;;;;;;;11.13;6.72;;;8.00;99.90;;;;;;4959464;28;20030;-82
2022/04/15 06:33:33;;;;;;;15.32;7.47;;;8.00;99.90;;;;;;4997131;28;20916;-83
2022/04/15 06:36:00;;;;;;;11.77;6.93;;;8.00;99.90;;;;;;4978939;28;20375;-81
2022/04/15 06:38:25;;;;;;;10.20;6.53;;;8.10;99.90;;;;;;4976613;28;20061;-81
2022/04/15 06:40:51;;;;;;;5.70;4.82;;;8.20;99.90;;;;;;4971208;28;20778;-80
2022/04/15 06:43:17;;;;;;;9.07;5.78;;;8.40;99.90;;;;;;4988627;28;20065;-81
2022/04/15 06:45:43;;;;;;;7.60;3.42;;;8.60;99.90;;;;;;4976247;28;20375;-82
2022/04/15 06:48:08;;;;;;;6.93;4.18;;;8.90;99.90;;;;;;4977557;28;20331;-80
2022/04/15 06:50:34;;;;;;;6.70;3.53;;;9.10;99.90;;;;;;4991076;28;20036;-81
2022/04/15 06:53:00;;;;;;;5.55;3.17;;;9.20;99.90;;;;;;4977651;28;20386;-81
2022/04/15 06:55:26;;;;;;;5.50;4.25;;;9.40;99.90;;;;;;4962894;28;20034;-81
2022/04/15 06:57:51;;;;;;;4.85;3.60;;;9.20;99.90;;;;;;4976250;28;20025;-80
2022/04/15 07:00:18;;;;;;;4.43;2.78;;;9.10;99.90;;;;;;4978971;28;20434;-82
2022/04/15 07:02:44;;;;;;;7.72;4.55;;;9.10;99.90;;;;;;4977689;28;20674;-81
2022/04/15 07:05:10;;;;;;;7.80;4.78;;;8.90;99.90;;;;;;4997884;28;20034;-82
2022/04/15 07:07:36;;;;;;;6.60;3.70;;;8.80;99.90;;;;;;4978523;28;20033;-81
2022/04/15 07:10:03;;;;;;;4.85;3.40;;;9.10;99.90;;;;;;4959768;28;20030;-81
2022/04/15 07:12:29;;;;;;;3.53;2.83;;;9.20;99.90;;;;;;4974145;28;20510;-82
2022/04/15 07:14:56;;;;;;;4.68;2.45;;;9.40;99.90;;;;;;4974756;28;20049;-82
2022/04/15 07:17:21;;;;;;;5.53;2.92;;;9.20;99.90;;;;;;4956543;28;20499;-80
2022/04/15 07:19:47;;;;;;;3.58;1.85;;;9.00;99.90;;;;;;4959029;28;20129;-82
2022/04/15 07:22:17;;;;;;;2.65;1.33;;;9.00;99.90;;;;;;4980150;28;20022;-82
2022/04/15 07:24:42;;;;;;;2.40;1.00;;;9.10;99.90;;;;;;4956879;28;20130;-82
2022/04/15 07:27:08;;;;;;;2.15;1.02;;;9.20;99.90;;;;;;4996935;28;20052;-82
2022/04/15 07:29:34;;;;;;;3.35;2.20;;;9.20;99.90;;;;;;4962105;28;20427;-80
2022/04/15 07:31:59;;;;;;;2.90;1.23;;;9.00;99.90;;;;;;4958925;28;20058;-82
2022/04/15 07:34:26;;;;;;;3.22;1.52;;;9.10;99.90;;;;;;4962263;28;20080;-82
2022/04/15 07:36:55;;;;;;;1.77;0.73;;;9.10;99.90;;;;;;4955131;28;20045;-81
2022/04/15 07:39:22;;;;;;;3.47;1.60;;;9.10;99.90;;;;;;4995363;28;20498;-81
2022/04/15 07:41:48;;;;;;;3.67;1.30;;;8.90;99.90;;;;;;4990812;28;20040;-82
2022/04/15 07:44:14;;;;;;;3.53;1.10;;;8.90;99.90;;;;;;4961662;28;20038;-81
2022/04/15 07:46:41;;;;;;;4.03;1.17;;;8.90;99.90;;;;;;4990445;28;20078;-80
2022/04/15 07:49:08;;;;;;;2.92;0.90;;;9.00;99.90;;;;;;4973488;28;20033;-81
2022/04/15 07:51:35;;;;;;;2.53;1.10;;;9.10;99.90;;;;;;4977705;28;20817;-79
2022/04/15 07:54:01;;;;;;;1.92;0.85;;;9.10;99.90;;;;;;4956253;28;20034;-81
2022/04/15 07:56:46;;;;;;;3.25;1.35;;;9.10;99.90;;;;;;4947942;28;20033;-79
2022/04/15 07:59:12;;;;;;;3.00;1.40;;;9.00;99.90;;;;;;4955227;28;20054;-82
2022/04/15 08:01:38;;;;;;;4.03;1.65;;;9.00;99.90;;;;;;4977753;28;20078;-82
2022/04/15 08:04:05;;;;;;;4.55;2.05;;;9.00;99.90;;;;;;4975290;28;20358;-82
2022/04/15 08:06:36;;;;;;;4.10;1.55;;;8.90;99.90;;;;;;4978564;28;20465;-81
2022/04/15 08:09:02;;;;;;;3.67;1.10;;;9.10;99.90;;;;;;4973725;28;20045;-81
2022/04/15 08:11:27;;;;;;;3.58;1.35;;;9.20;99.90;;;;;;4989218;28;20026;-81
2022/04/15 08:13:54;;;;;;;3.03;1.65;;;9.10;99.90;;;;;;4978671;28;20026;-81
2022/04/15 08:16:21;;;;;;;3.28;1.35;;;9.10;99.90;;;;;;4955923;28;20645;-81
2022/04/15 08:18:49;;;;;;;2.75;1.10;;;9.10;99.90;;;;;;4971393;28;20038;-83
2022/04/15 08:21:16;;;;;;;3.25;1.15;;;9.20;99.90;;;;;;4960422;28;20173;-82
2022/04/15 08:23:42;;;;;;;3.47;1.48;;;9.30;99.90;;;;;;4965516;28;20084;-81
2022/04/15 08:26:07;;;;;;;2.38;1.42;;;9.30;99.90;;;;;;4980853;28;20053;-81
2022/04/15 08:28:33;;;;;;;4.65;2.20;;;9.30;99.90;;;;;;4998420;28;20026;-81
2022/04/15 08:30:58;;;;;;;3.88;1.10;;;9.30;99.90;;;;;;4979662;28;20068;-82
2022/04/15 08:33:24;;;;;;;3.95;1.50;;;9.40;99.90;;;;;;4975559;28;20030;-80
2022/04/15 08:35:50;;;;;;;3.78;1.95;;;9.40;99.90;;;;;;4988646;28;20030;-80
2022/04/15 08:38:16;;;;;;;2.65;1.55;;;9.30;99.90;;;;;;4964382;28;20029;-81
2022/04/15 08:40:49;;;;;;;5.65;2.10;;;9.40;99.90;;;;;;4964615;28;20044;-81
2022/04/15 08:43:15;;;;;;;2.45;1.30;;;9.30;99.90;;;;;;4975070;28;20030;-82
2022/04/15 08:45:47;;;;;;;4.05;1.88;;;9.40;99.90;;;;;;4975077;28;20034;-81
2022/04/15 08:48:13;;;;;;;3.25;1.52;;;9.30;99.90;;;;;;4969968;28;20397;-80
2022/04/15 08:50:39;;;;;;;3.00;1.80;;;9.30;99.90;;;;;;4948209;28;20535;-81
2022/04/15 08:53:05;;;;;;;2.65;1.10;;;9.30;99.90;;;;;;4972044;28;20058;-83
2022/04/15 08:55:31;;;;;;;2.22;1.40;;;9.30;99.90;;;;;;4972482;28;20098;-81
2022/04/15 08:57:58;;;;;;;2.53;1.20;;;9.40;99.90;;;;;;4971237;28;20468;-81
2022/04/15 09:00:24;;;;;;;3.28;1.75;;;9.40;99.90;;;;;;4975130;28;20042;-81
2022/04/15 09:02:51;;;;;;;3.40;1.33;;;9.40;99.90;;;;;;4953610;28;20803;-82
2022/04/15 09:05:26;;;;;;;3.70;2.72;;;9.40;99.90;;;;;;4950604;28;20429;-82
2022/04/15 09:08:21;;;;;;;3.08;1.40;;;9.20;99.90;;;;;;4953618;28;20522;-82
2022/04/15 09:10:55;;;;;;;4.00;2.28;;;9.30;99.90;;;;;;4925926;28;20069;-81
2022/04/15 09:13:23;;;;;;;3.97;1.48;;;9.30;99.90;;;;;;4976880;28;20068;-82
2022/04/15 09:15:49;;;;;;;3.67;1.10;;;9.40;99.90;;;;;;4959651;28;20104;-81
2022/04/15 09:18:32;;;;;;;2.10;1.00;;;9.50;99.90;;;;;;4954000;28;20030;-81
2022/04/15 09:21:20;;;;;;;1.98;0.82;;;9.50;99.90;;;;;;4975723;28;20149;-81
2022/04/15 09:23:48;;;;;;;2.13;0.88;;;9.60;99.90;;;;;;4977041;28;20038;-81
2022/04/15 09:26:14;;;;;;;2.90;0.88;;;9.50;99.90;;;;;;4954786;28;20478;-81
2022/04/15 09:28:39;;;;;;;2.40;0.80;;;9.60;99.90;;;;;;4953090;28;20994;-80
2022/04/15 09:31:13;;;;;;;3.33;1.17;;;9.70;99.90;;;;;;4971919;28;20171;-81
2022/04/15 09:34:18;;;;;;;3.03;1.65;;;9.60;99.90;;;;;;4972092;28;20038;-81
2022/04/15 09:36:47;;;;;;;3.90;1.48;;;9.50;99.90;;;;;;4951740;28;20117;-81
2022/04/15 09:39:15;;;;;;;3.47;1.75;;;9.50;99.90;;;;;;4960628;28;20106;-81
2022/04/15 09:41:54;;;;;;;3.42;1.65;;;9.50;99.90;;;;;;4937518;28;20101;-81
2022/04/15 09:44:21;;;;;;;2.05;1.02;;;9.60;99.90;;;;;;4956818;28;20042;-80
2022/04/15 09:46:46;;;;;;;2.90;1.23;;;9.60;99.90;;;;;;4974314;28;20030;-81
2022/04/15 09:49:13;;;;;;;3.60;1.60;;;9.60;99.90;;;;;;4939249;28;20069;-82
2022/04/15 09:51:45;;;;;;;3.92;1.58;;;9.50;99.90;;;;;;4953042;28;22021;-80
2022/04/15 09:54:25;;;;;;;4.68;2.83;;;9.60;99.90;;;;;;4958451;28;20045;-82
2022/04/15 09:56:53;;;;;;;5.55;3.47;;;9.50;99.90;;;;;;4957294;28;20065;-81
2022/04/15 09:59:22;;;;;;;4.47;2.40;;;9.30;99.90;;;;;;4943452;28;20054;-81
2022/04/15 10:01:53;;;;;;;4.90;1.50;;;9.50;99.90;;;;;;4973810;28;20037;-81
2022/04/15 10:04:20;;;;;;;2.67;1.85;;;9.60;99.90;;;;;;4959601;28;20475;-81
2022/04/15 10:06:46;;;;;;;2.17;1.48;;;9.60;99.90;;;;;;4953891;28;20029;-81
2022/04/15 10:09:12;;;;;;;4.68;2.58;;;9.70;99.90;;;;;;4955253;28;20042;-81
2022/04/15 10:11:41;;;;;;;3.70;1.88;;;9.60;99.90;;;;;;4976232;28;20026;-81
2022/04/15 10:14:08;;;;;;;3.10;1.60;;;9.70;99.90;;;;;;4937575;28;20125;-82
2022/04/15 10:16:35;;;;;;;5.38;2.30;;;9.70;99.90;;;;;;4937329;28;20073;-81
2022/04/15 10:19:01;;;;;;;3.50;2.40;;;9.50;99.90;;;;;;4977953;28;20130;-81
2022/04/15 10:21:32;;;;;;;5.38;3.33;;;9.50;99.90;;;;;;4980806;28;20121;-81
2022/04/15 10:24:09;;;;;;;4.45;3.38;;;9.50;99.90;;;;;;4977330;28;20109;-81
2022/04/15 10:26:47;;;;;;;3.80;2.22;;;9.60;99.90;;;;;;4947631;28;20045;-81
2022/04/15 10:29:13;;;;;;;2.63;1.98;;;9.70;99.90;;;;;;4978370;28;20032;-80
2022/04/15 10:31:43;;;;;;;3.70;1.73;;;9.80;99.90;;;;;;4969559;28;20161;-80
2022/04/15 10:34:15;;;;;;;3.03;1.33;;;9.80;99.90;;;;;;4962309;28;20395;-81
2022/04/15 10:36:49;;;;;;;2.80;1.23;;;9.90;99.90;;;;;;4940800;28;20037;-81
2022/04/15 10:39:16;;;;;;;2.00;0.93;;;10.10;99.90;;;;;;4962995;28;20185;-81
2022/04/15 10:41:41;;;;;;;2.35;1.50;;;10.20;99.90;;;;;;4957989;28;20133;-81
2022/04/15 10:44:11;;;;;;;2.13;0.82;;;10.20;99.90;;;;;;4958568;28;20091;-81
2022/04/15 10:46:38;;;;;;;3.47;1.58;;;10.20;99.90;;;;;;4964963;28;20053;-80
2022/04/15 10:49:23;;;;;;;2.75;1.00;;;10.20;99.90;;;;;;4958299;28;20038;-80
2022/04/15 10:52:15;;;;;;;2.50;1.13;;;10.20;99.90;;;;;;4990886;28;20458;-80
2022/04/15 10:54:45;;;;;;;5.70;2.15;;;10.30;99.90;;;;;;4994346;28;20034;-81
2022/04/15 10:57:16;;;;;;;3.10;1.60;;;10.30;99.90;;;;;;4982526;28;20112;-81
2022/04/15 11:02:46;;;;;;;3.25;2.05;;;10.30;99.90;;;;;;4999800;28;20150;-81
2022/04/15 11:05:15;;;;;;;4.30;1.98;;;10.20;99.90;;;;;;4999681;28;20033;-81
2022/04/15 11:07:57;;;;;;;2.53;1.35;;;10.20;99.90;;;;;;4976395;28;20461;-81
2022/04/15 11:10:58;;;;;;;5.53;3.15;;;10.40;99.90;;;;;;4973034;28;20026;-81
2022/04/15 11:13:27;;;;;;;8.05;3.50;;;10.30;99.90;;;;;;4973018;28;20034;-81
2022/04/15 11:16:11;;;;;;;5.55;3.45;;;10.20;99.90;;;;;;4958463;28;20403;-81
2022/04/15 11:18:43;;;;;;;4.90;1.98;;;10.00;99.90;;;;;;4993696;28;20153;-81
2022/04/15 11:21:25;;;;;;;3.22;1.63;;;10.40;99.90;;;;;;4975058;28;20133;-80
2022/04/15 11:24:00;;;;;;;2.88;1.60;;;10.30;99.90;;;;;;4990143;28;20034;-80
2022/04/15 11:26:27;;;;;;;2.95;2.03;;;10.40;99.90;;;;;;4995982;28;20117;-81
2022/04/15 11:28:56;;;;;;;3.50;2.05;;;10.20;99.90;;;;;;4971407;28;20376;-82
2022/04/15 11:31:25;;;;;;;3.35;1.60;;;10.40;99.90;;;;;;4958199;28;20478;-80
2022/04/15 11:33:51;;;;;;;2.60;1.35;;;10.50;99.90;;;;;;4996285;28;20030;-81
2022/04/15 11:36:18;;;;;;;3.72;1.95;;;10.40;99.90;;;;;;4958751;28;20176;-81
2022/04/15 11:38:48;;;;;;;2.13;0.98;;;10.60;99.90;;;;;;4962519;28;20166;-81
2022/04/15 11:41:21;;;;;;;2.47;1.00;;;10.70;99.90;;;;;;4974504;28;20029;-81
2022/04/15 11:43:56;;;;;;;3.53;1.67;;;10.80;99.90;;;;;;4972470;28;20081;-80
2022/04/15 11:46:22;;;;;;;2.63;1.48;;;10.60;99.90;;;;;;4992504;28;20034;-81
2022/04/15 11:48:50;;;;;;;2.90;1.70;;;10.60;99.90;;;;;;4974618;28;20057;-81
2022/04/15 11:51:22;;;;;;;2.58;1.10;;;10.70;99.90;;;;;;4939767;28;21769;-81
2022/04/15 11:53:49;;;;;;;2.72;1.80;;;10.70;99.90;;;;;;4952065;28;20387;-80
2022/04/15 11:56:26;;;;;;;4.38;2.53;;;10.70;99.90;;;;;;4977073;28;20061;-81
2022/04/15 11:58:53;;;;;;;5.95;2.90;;;10.50;99.90;;;;;;4951868;28;20509;-81
2022/04/15 12:01:27;;;;;;;5.60;4.43;;;10.40;99.90;;;;;;4971999;28;20038;-81
2022/04/15 12:03:52;;;;;;;3.67;2.40;;;10.40;99.90;;;;;;4955733;28;20038;-81
2022/04/15 12:06:18;;;;;;;3.08;2.05;;;10.70;99.90;;;;;;4953898;28;20034;-81
2022/04/15 12:08:45;;;;;;;3.35;1.77;;;10.90;99.90;;;;;;4956158;28;20084;-80
2022/04/15 12:11:11;;;;;;;2.70;1.40;;;10.90;99.90;;;;;;4977322;28;20038;-81
2022/04/15 12:13:39;;;;;;;4.65;2.35;;;11.00;99.90;;;;;;4960405;28;20107;-80
2022/04/15 12:16:05;;;;;;;3.40;2.10;;;10.80;99.90;;;;;;4956104;28;20121;-81
2022/04/15 12:18:30;;;;;;;2.67;1.30;;;10.90;99.90;;;;;;4967427;28;20026;-81
2022/04/15 12:20:56;;;;;;;1.90;0.98;;;11.00;99.90;;;;;;4977582;28;20514;-81
2022/04/15 12:23:25;;;;;;;2.90;1.10;;;11.00;99.90;;;;;;4972162;28;20145;-79
2022/04/15 12:26:06;;;;;;;3.20;2.30;;;11.00;99.90;;;;;;4954593;28;20030;-81
2022/04/15 12:29:47;;;;;;;3.90;1.70;;;10.80;99.90;;;;;;4950130;28;20423;-80
2022/04/15 12:32:22;;;;;;;2.67;1.17;;;11.10;99.90;;;;;;4967829;28;20166;-80
2022/04/15 12:35:11;;;;;;;4.45;2.40;;;11.00;99.90;;;;;;4952815;28;20034;-81
2022/04/15 12:37:37;;;;;;;3.72;2.40;;;10.90;99.90;;;;;;4964643;28;20034;-80
2022/04/15 12:40:11;;;;;;;3.72;2.85;;;11.00;99.90;;;;;;4956263;28;20049;-80
2022/04/15 12:42:41;;;;;;;2.90;1.83;;;10.90;99.90;;;;;;4950611;28;20065;-80
2022/04/15 12:45:09;;;;;;;3.70;1.57;;;11.00;99.90;;;;;;4957620;28;20053;-80
2022/04/15 12:47:39;;;;;;;2.83;1.52;;;11.20;99.90;;;;;;4976251;28;22189;-80
2022/04/15 12:50:23;;;;;;;2.58;1.20;;;11.30;99.90;;;;;;4959464;28;20031;-80
2022/04/15 12:52:54;;;;;;;1.85;0.90;;;11.50;99.90;;;;;;4954252;28;20672;-80
2022/04/15 12:55:29;;;;;;;2.00;1.23;;;11.60;99.90;;;;;;4979226;28;20034;-81
2022/04/15 12:57:56;;;;;;;2.17;1.20;;;11.40;99.90;;;;;;4996495;28;20038;-81
2022/04/15 13:00:22;;;;;;;2.33;1.10;;;11.40;99.90;;;;;;4997867;28;20045;-81
2022/04/15 13:02:48;;;;;;;2.13;0.70;;;11.60;99.90;;;;;;4959380;28;20029;-81